Beaufort, SC

4:49 PM EDT on August 21, 2017 (GMT -0400)
Beaufort

Weather History for KARW - November, 2012

Change the Weather History Date:

Monday, November 19, 2012

  Actual Average (KNBC) Record (KNBC)
Temperature  
Mean Temperature 58 °F -  
Max Temperature 62 °F 70 °F 83 °F (1938)
Min Temperature 53 °F 50 °F 28 °F (2008)
Degree Days  
Heating Degree Days 8    
Growing Degree Days 8 (Base 50)    
Moisture  
Dew Point 49 °F    
Average Humidity 77    
Maximum Humidity 88    
Minimum Humidity 63    
Precipitation  
Precipitation 0.00 in - - ()
Sea Level Pressure  
Sea Level Pressure 30.16 in    
Wind  
Wind Speed 13 mph (North)    
Max Wind Speed 18 mph    
Max Gust Speed 28 mph    
Visibility 8 miles    
Events Rain    
Averages and records for this station are not official NWS values.
T = Trace of Precipitation, MM = Missing Value Source: NWS Daily Summary

Daily Weather History Graph

Daily Weather History Graph

Search for Another Location

Airport or City:

Trip Planner

Search our weather history database for the weather conditions in past years. The results will help you decide how hot, cold, wet, or windy it might be!

Date:

Astronomy

Nov. 19, 2012 Rise Set
Actual Time 6:55 AM EST 5:19 PM EST
Civil Twilight 6:29 AM EST 5:46 PM EST
Nautical Twilight 5:59 AM EST 6:15 PM EST
Astronomical Twilight 5:30 AM EST 6:45 PM EST
Moon 12:05 PM EST (11/19) 11:36 PM EST (11/19)
Length of Visible Light 11h 16m
Length of Day
10h 23m
Waxing Crescent, 40% of the Moon is Illuminated
Nov 19
Waxing Crescent
Nov 20
First Quarter
Nov 28
Full
Dec 6
Last Quarter
Dec 13
New

Hourly Weather History & Observations

Time (EST) Temp. Dew Point Humidity Pressure Visibility Wind Dir Wind Speed Gust Speed Precip Events Conditions
12:15 AM 53.6 °F 50.0 °F 88% 30.19 in 7.0 mi North 18.4 mph 25.3 mph N/A   Overcast
12:35 AM 53.6 °F 50.0 °F 88% 30.19 in 7.0 mi North 15.0 mph 25.3 mph N/A   Overcast
12:55 AM 53.6 °F 50.0 °F 88% 30.18 in 7.0 mi North 17.3 mph 24.2 mph N/A   Overcast
1:15 AM 53.6 °F 50.0 °F 88% 30.18 in 7.0 mi North 15.0 mph 20.7 mph N/A Rain Light Rain
1:35 AM 53.6 °F 48.2 °F 82% 30.18 in 10.0 mi North 17.3 mph 24.2 mph N/A   Light Drizzle
1:55 AM 53.6 °F 48.2 °F 82% 30.17 in 7.0 mi North 13.8 mph 19.6 mph N/A   Overcast
2:15 AM 53.6 °F 48.2 °F 82% 30.17 in 7.0 mi North 11.5 mph - N/A   Overcast
2:35 AM 53.6 °F 48.2 °F 82% 30.17 in 7.0 mi North 17.3 mph 27.6 mph N/A   Overcast
2:55 AM 53.6 °F 48.2 °F 82% 30.16 in 7.0 mi North 11.5 mph 19.6 mph N/A   Overcast
3:35 AM 53.6 °F 48.2 °F 82% 30.16 in 7.0 mi North 17.3 mph 27.6 mph N/A   Overcast
3:55 AM 53.6 °F 48.2 °F 82% 30.16 in 7.0 mi North 12.7 mph - N/A   Overcast
4:15 AM 53.6 °F 48.2 °F 82% 30.16 in 7.0 mi NNW 11.5 mph - N/A   Overcast
4:55 AM 53.6 °F 48.2 °F 82% 30.17 in 7.0 mi North 10.4 mph 17.3 mph N/A   Overcast
5:15 AM 53.6 °F 46.4 °F 77% 30.18 in 7.0 mi NNW 11.5 mph 20.7 mph N/A   Overcast
5:35 AM 53.6 °F 46.4 °F 77% 30.17 in 7.0 mi North 12.7 mph - N/A   Overcast
5:55 AM 53.6 °F 46.4 °F 77% 30.17 in 7.0 mi NNW 11.5 mph 19.6 mph N/A   Overcast
6:15 AM 53.6 °F 46.4 °F 77% 30.18 in 7.0 mi North 13.8 mph 19.6 mph N/A   Overcast
6:35 AM 53.6 °F 46.4 °F 77% 30.19 in 7.0 mi North 12.7 mph 18.4 mph N/A   Overcast
6:55 AM 53.6 °F 46.4 °F 77% 30.19 in 7.0 mi NNW 13.8 mph 19.6 mph N/A   Overcast
7:15 AM 53.6 °F 46.4 °F 77% 30.20 in 7.0 mi North 10.4 mph - N/A   Overcast
7:35 AM 53.6 °F 46.4 °F 77% 30.20 in 7.0 mi North 12.7 mph 20.7 mph N/A   Overcast
7:55 AM 53.6 °F 46.4 °F 77% 30.20 in 7.0 mi North 13.8 mph 17.3 mph N/A   Overcast
8:35 AM 53.6 °F 46.4 °F 77% 30.21 in 7.0 mi North 11.5 mph 17.3 mph N/A   Overcast
8:55 AM 53.6 °F 46.4 °F 77% 30.21 in 7.0 mi NNW 10.4 mph - N/A   Overcast
9:15 AM 53.6 °F 46.4 °F 77% 30.21 in 7.0 mi North 12.7 mph 18.4 mph N/A   Overcast
9:35 AM 53.6 °F 46.4 °F 77% 30.22 in 7.0 mi North 15.0 mph - N/A   Overcast
9:55 AM 53.6 °F 46.4 °F 77% 30.22 in 4.0 mi North 15.0 mph 25.3 mph N/A   Haze
10:15 AM 53.6 °F 46.4 °F 77% 30.22 in 7.0 mi North 12.7 mph 17.3 mph N/A   Overcast
10:35 AM 55.4 °F 48.2 °F 77% 30.21 in 7.0 mi North 12.7 mph - N/A   Overcast
10:55 AM 55.4 °F 48.2 °F 77% 30.20 in 5.0 mi North 15.0 mph 18.4 mph N/A   Haze
11:15 AM 55.4 °F 48.2 °F 77% 30.19 in 5.0 mi North 13.8 mph 18.4 mph N/A   Haze
11:35 AM 57.2 °F 48.2 °F 72% 30.19 in 5.0 mi North 12.7 mph - N/A   Haze
11:55 AM 57.2 °F 48.2 °F 72% 30.17 in 7.0 mi North 10.4 mph 20.7 mph N/A   Overcast
12:15 PM 59.0 °F 48.2 °F 67% 30.17 in 5.0 mi North 12.7 mph - N/A   Haze
12:35 PM 59.0 °F 48.2 °F 67% 30.16 in 7.0 mi North 11.5 mph 16.1 mph N/A   Overcast
12:55 PM 59.0 °F 48.2 °F 67% 30.16 in 7.0 mi NNW 16.1 mph 19.6 mph N/A   Overcast
1:15 PM 59.0 °F 50.0 °F 72% 30.15 in 7.0 mi NNW 9.2 mph - N/A   Overcast
1:35 PM 59.0 °F 50.0 °F 72% 30.14 in 7.0 mi NNW 16.1 mph 23.0 mph N/A   Overcast
1:55 PM 60.8 °F 50.0 °F 68% 30.13 in 7.0 mi North 11.5 mph 19.6 mph N/A   Overcast
2:15 PM 60.8 °F 50.0 °F 68% 30.13 in 7.0 mi North 16.1 mph 20.7 mph N/A   Overcast
2:35 PM 60.8 °F 50.0 °F 68% 30.13 in 7.0 mi NNW 15.0 mph 18.4 mph N/A   Overcast
2:55 PM 60.8 °F 50.0 °F 68% 30.13 in 5.0 mi North 9.2 mph 20.7 mph N/A   Haze
3:15 PM 62.6 °F 50.0 °F 63% 30.13 in 7.0 mi NNW 12.7 mph 19.6 mph N/A   Mostly Cloudy
3:35 PM 62.6 °F 50.0 °F 63% 30.13 in 7.0 mi North 16.1 mph 20.7 mph N/A   Mostly Cloudy
3:55 PM 60.8 °F 50.0 °F 68% 30.13 in 10.0 mi NNW 10.4 mph 19.6 mph N/A   Scattered Clouds
4:15 PM 60.8 °F 50.0 °F 68% 30.13 in 10.0 mi NNW 10.4 mph - N/A   Scattered Clouds
4:35 PM 60.8 °F 50.0 °F 68% 30.13 in 10.0 mi North 11.5 mph 15.0 mph N/A   Mostly Cloudy
4:55 PM 60.8 °F 50.0 °F 68% 30.13 in 10.0 mi North 8.1 mph - N/A   Mostly Cloudy
5:15 PM 59.0 °F 50.0 °F 72% 30.14 in 10.0 mi North 5.8 mph - N/A   Scattered Clouds
5:35 PM 59.0 °F 50.0 °F 72% 30.14 in 10.0 mi North 4.6 mph - N/A   Mostly Cloudy
5:55 PM 59.0 °F 51.8 °F 77% 30.14 in 10.0 mi NNW 3.5 mph - N/A   Overcast
6:15 PM 59.0 °F 50.0 °F 72% 30.14 in 10.0 mi NNW 4.6 mph - N/A   Mostly Cloudy
6:35 PM 55.4 °F 50.0 °F 82% 30.14 in 10.0 mi NNW 5.8 mph - N/A   Scattered Clouds
6:55 PM 55.4 °F 50.0 °F 82% 30.14 in 10.0 mi NNW 4.6 mph - N/A   Scattered Clouds
7:15 PM 55.4 °F 50.0 °F 82% 30.14 in 10.0 mi NNW 5.8 mph - N/A   Mostly Cloudy
7:35 PM 55.4 °F 50.0 °F 82% 30.14 in 10.0 mi North 6.9 mph - N/A   Scattered Clouds
7:55 PM 55.4 °F 50.0 °F 82% 30.14 in 10.0 mi North 8.1 mph - N/A   Clear
8:15 PM 57.2 °F 51.8 °F 82% 30.14 in 10.0 mi North 9.2 mph - N/A   Clear
8:55 PM 55.4 °F 50.0 °F 82% 30.15 in 10.0 mi NNE 8.1 mph - N/A   Clear
9:15 PM 55.4 °F 50.0 °F 82% 30.14 in 10.0 mi North 6.9 mph - N/A   Clear
9:35 PM 53.6 °F 50.0 °F 88% 30.14 in 10.0 mi North 6.9 mph - N/A   Clear
10:15 PM 55.4 °F 50.0 °F 82% 30.13 in 10.0 mi North 10.4 mph - N/A   Mostly Cloudy
10:35 PM 55.4 °F 50.0 °F 82% 30.13 in 10.0 mi NNE 9.2 mph - N/A   Clear
10:55 PM 55.4 °F 50.0 °F 82% 30.12 in 10.0 mi North 5.8 mph - N/A   Clear
11:15 PM 53.6 °F 50.0 °F 88% 30.12 in 10.0 mi North 4.6 mph - N/A   Clear
11:35 PM 53.6 °F 50.0 °F 88% 30.11 in 10.0 mi North 3.5 mph - N/A   Clear
11:55 PM 53.6 °F 50.0 °F 88% 30.11 in 10.0 mi NW 4.6 mph - N/A   Clear